createdAt,value
2022-10-01T00:01:19.032Z,2.40
2022-10-01T00:03:47.952Z,3.30
2022-10-01T00:06:18.286Z,2.60
2022-10-01T00:08:48.836Z,2.28
2022-10-01T00:11:23.222Z,2.25
2022-10-01T00:13:51.188Z,2.53
2022-10-01T00:16:25.340Z,2.60
2022-10-01T00:18:55.711Z,2.65
2022-10-01T00:21:26.330Z,2.78
2022-10-01T00:23:55.710Z,2.65
2022-10-01T00:26:28.615Z,2.17
2022-10-01T00:29:01.444Z,1.90
2022-10-01T00:31:29.862Z,2.17
2022-10-01T00:33:58.658Z,2.17
2022-10-01T00:36:27.047Z,2.53
2022-10-01T00:39:00.581Z,2.35
2022-10-01T00:41:30.899Z,1.98
2022-10-01T00:44:23.147Z,2.03
2022-10-01T00:49:24.248Z,2.10
2022-10-01T00:51:57.841Z,2.47
2022-10-01T00:54:43.779Z,2.08
2022-10-01T00:57:14.173Z,2.40
2022-10-01T00:59:41.590Z,2.25
2022-10-01T01:02:09.012Z,2.33
2022-10-01T01:04:36.366Z,1.90
2022-10-01T01:07:04.996Z,2.15
2022-10-01T01:09:36.049Z,1.88
2022-10-01T01:12:41.022Z,1.90
2022-10-01T01:15:37.243Z,1.77
2022-10-01T01:18:28.257Z,1.98
2022-10-01T01:21:39.431Z,1.95
2022-10-01T01:24:24.803Z,1.67
2022-10-01T01:26:59.329Z,2.00
2022-10-01T01:29:39.818Z,1.90
2022-10-01T01:32:22.267Z,1.70
2022-10-01T01:34:52.475Z,1.85
2022-10-01T01:37:23.327Z,2.15
2022-10-01T01:39:53.568Z,1.83
2022-10-01T01:42:37.095Z,2.17
2022-10-01T01:45:09.859Z,2.00
2022-10-01T01:47:39.834Z,2.10
2022-10-01T01:50:10.902Z,2.35
2022-10-01T01:52:38.431Z,2.33
2022-10-01T01:55:08.464Z,2.50
2022-10-01T01:57:44.084Z,2.17
2022-10-01T02:00:12.788Z,1.65
2022-10-01T02:02:43.409Z,1.67
2022-10-01T02:05:17.711Z,2.30
2022-10-01T02:08:12.948Z,1.70
2022-10-01T02:11:05.168Z,2.03
2022-10-01T02:13:53.884Z,1.75
2022-10-01T02:16:33.457Z,2.17
2022-10-01T02:19:35.274Z,1.88
2022-10-01T02:22:22.770Z,2.10
2022-10-01T02:24:58.223Z,2.08
2022-10-01T02:27:47.743Z,2.10
2022-10-01T02:30:15.359Z,1.95
2022-10-01T02:32:45.476Z,2.38
2022-10-01T02:35:18.391Z,2.05
2022-10-01T02:37:49.140Z,2.10
2022-10-01T02:40:19.271Z,1.98
2022-10-01T02:42:51.930Z,2.63
2022-10-01T02:45:23.574Z,2.42
2022-10-01T02:47:58.831Z,2.55
2022-10-01T02:50:32.617Z,2.22
2022-10-01T02:53:05.622Z,2.40
2022-10-01T02:55:40.918Z,2.70
2022-10-01T02:58:08.752Z,2.70
2022-10-01T03:00:36.138Z,2.42
2022-10-01T03:03:03.508Z,2.60
2022-10-01T03:05:31.274Z,2.65
2022-10-01T03:07:58.724Z,2.90
2022-10-01T03:10:25.999Z,3.00
2022-10-01T03:12:53.308Z,3.35
2022-10-01T03:15:20.983Z,3.08
2022-10-01T03:17:52.723Z,3.15
2022-10-01T03:20:20.534Z,2.80
2022-10-01T03:22:48.198Z,3.03
2022-10-01T03:25:16.021Z,3.38
2022-10-01T03:27:43.701Z,3.60
2022-10-01T03:30:11.534Z,3.22
2022-10-01T03:32:39.080Z,3.70
2022-10-01T03:35:06.905Z,3.70
2022-10-01T03:37:34.251Z,3.22
2022-10-01T03:40:01.767Z,3.63
2022-10-01T03:42:29.078Z,3.47
2022-10-01T03:44:56.302Z,3.72
2022-10-01T03:47:24.432Z,4.40
2022-10-01T03:49:51.831Z,3.95
2022-10-01T03:52:19.831Z,3.80
2022-10-01T03:54:47.162Z,4.20
2022-10-01T03:57:14.705Z,4.50
2022-10-01T03:59:42.634Z,4.43
2022-10-01T04:02:10.163Z,4.00
2022-10-01T04:04:37.678Z,4.35
2022-10-01T04:07:04.896Z,3.72
2022-10-01T04:09:32.117Z,4.70
2022-10-01T04:11:59.837Z,4.60
2022-10-01T04:14:27.106Z,4.55
2022-10-01T04:16:54.389Z,4.10
2022-10-01T04:19:21.630Z,4.65
2022-10-01T04:21:48.907Z,4.18
2022-10-01T04:24:16.257Z,4.30
2022-10-01T04:26:43.570Z,5.22
2022-10-01T04:29:10.919Z,4.80
2022-10-01T04:31:38.788Z,5.18
2022-10-01T04:34:06.420Z,5.13
2022-10-01T04:36:33.774Z,4.03
2022-10-01T04:39:02.767Z,5.07
2022-10-01T04:41:31.503Z,4.38
2022-10-01T04:43:59.922Z,5.03
2022-10-01T04:46:30.329Z,4.72
2022-10-01T04:48:58.278Z,4.72
2022-10-01T04:51:25.740Z,5.03
2022-10-01T04:53:53.064Z,4.80
2022-10-01T04:56:20.308Z,4.85
2022-10-01T04:58:48.580Z,4.97
2022-10-01T05:01:15.956Z,5.18
2022-10-01T05:03:43.341Z,4.70
2022-10-01T05:06:10.550Z,4.55
2022-10-01T05:08:39.132Z,5.25
2022-10-01T05:11:06.451Z,5.18
2022-10-01T05:13:33.781Z,4.53
2022-10-01T05:16:03.711Z,4.93
2022-10-01T05:18:31.727Z,5.15
2022-10-01T05:20:59.214Z,4.30
2022-10-01T05:23:26.752Z,5.13
2022-10-01T05:25:54.080Z,4.93
2022-10-01T05:28:22.650Z,5.22
2022-10-01T05:30:51.087Z,5.65
2022-10-01T05:33:18.844Z,4.55
2022-10-01T05:35:46.111Z,5.00
2022-10-01T05:38:13.337Z,5.10
2022-10-01T05:40:44.706Z,4.45
2022-10-01T05:43:12.174Z,5.07
2022-10-01T05:45:39.539Z,5.68
2022-10-01T05:48:08.426Z,5.00
2022-10-01T05:50:42.401Z,5.53
2022-10-01T05:53:11.768Z,4.90
2022-10-01T05:55:39.166Z,5.85
2022-10-01T05:58:14.617Z,5.13
2022-10-01T06:00:43.032Z,5.15
2022-10-01T06:03:15.233Z,5.55
2022-10-01T06:05:44.507Z,5.15
2022-10-01T06:08:12.341Z,5.20
2022-10-01T06:10:39.923Z,5.63
2022-10-01T06:13:07.892Z,4.95
2022-10-01T06:15:38.119Z,6.65
2022-10-01T06:18:07.475Z,5.85
2022-10-01T06:20:35.270Z,4.88
2022-10-01T06:23:05.911Z,6.15
2022-10-01T06:25:35.085Z,5.30
2022-10-01T06:28:02.682Z,5.03
2022-10-01T06:30:32.026Z,5.07
2022-10-01T06:33:06.342Z,5.57
2022-10-01T06:35:34.980Z,5.35
2022-10-01T06:38:02.717Z,5.85
2022-10-01T06:40:31.240Z,5.20
2022-10-01T06:42:59.165Z,5.45
2022-10-01T06:45:28.247Z,4.90
2022-10-01T06:48:03.043Z,4.78
2022-10-01T06:50:31.642Z,4.50
2022-10-01T06:52:59.822Z,4.90
2022-10-01T06:55:32.873Z,4.50
2022-10-01T06:58:02.619Z,4.22
2022-10-01T07:00:32.266Z,5.18
2022-10-01T07:03:00.739Z,4.22
2022-10-01T07:05:28.155Z,4.43
2022-10-01T07:07:55.459Z,4.95
2022-10-01T07:10:23.571Z,4.32
2022-10-01T07:12:51.494Z,4.57
2022-10-01T07:15:22.796Z,4.05
2022-10-01T07:17:51.841Z,3.95
2022-10-01T07:20:20.489Z,5.20
2022-10-01T07:22:48.913Z,5.60
2022-10-01T07:25:16.954Z,5.00
2022-10-01T07:27:44.377Z,4.57
2022-10-01T07:30:11.894Z,5.05
2022-10-01T07:32:39.210Z,4.63
2022-10-01T07:35:06.916Z,4.75
2022-10-01T07:37:34.187Z,4.97
2022-10-01T07:40:07.159Z,5.28
2022-10-01T07:42:35.675Z,5.80
2022-10-01T07:45:06.582Z,4.25
2022-10-01T07:47:34.039Z,4.63
2022-10-01T07:50:01.359Z,4.90
2022-10-01T07:52:28.767Z,5.18
2022-10-01T07:54:56.115Z,5.55
2022-10-01T07:57:23.644Z,4.68
2022-10-01T07:59:55.550Z,5.07
2022-10-01T08:02:23.233Z,5.50
2022-10-01T08:05:09.396Z,5.90
2022-10-01T08:07:36.810Z,5.40
2022-10-01T08:10:04.683Z,5.95
2022-10-01T08:12:31.989Z,6.20
2022-10-01T08:14:59.375Z,5.82
2022-10-01T08:17:29.462Z,5.78
2022-10-01T08:19:56.930Z,5.53
2022-10-01T08:22:24.254Z,5.97
2022-10-01T08:24:51.493Z,5.78
2022-10-01T08:27:18.947Z,5.50
2022-10-01T08:29:46.151Z,5.80
2022-10-01T08:32:13.495Z,5.20
2022-10-01T08:34:40.875Z,6.97
2022-10-01T08:37:08.206Z,7.65
2022-10-01T08:39:37.047Z,7.80
2022-10-01T08:42:16.177Z,8.48
2022-10-01T08:44:46.101Z,8.88
2022-10-01T08:47:38.802Z,8.77
2022-10-01T08:50:24.226Z,8.85
2022-10-01T08:52:57.598Z,9.90
2022-10-01T08:55:28.337Z,10.18
2022-10-01T08:58:00.365Z,10.02
2022-10-01T09:00:30.500Z,11.15
2022-10-01T09:03:03.880Z,11.10
2022-10-01T09:05:49.055Z,11.85
2022-10-01T09:08:20.350Z,11.70
2022-10-01T09:11:00.638Z,12.00
2022-10-01T09:14:05.748Z,10.55
2022-10-01T09:16:33.001Z,11.77
2022-10-01T09:19:18.327Z,12.23
2022-10-01T09:22:39.790Z,11.95
2022-10-01T09:25:10.042Z,12.65
2022-10-01T09:27:38.785Z,12.82
2022-10-01T09:30:16.950Z,13.25
2022-10-01T09:33:16.834Z,13.30
2022-10-01T09:35:45.339Z,13.55
2022-10-01T09:38:21.587Z,14.20
2022-10-01T09:40:55.065Z,14.68
2022-10-01T09:43:33.601Z,14.13
2022-10-01T09:46:02.614Z,14.35
2022-10-01T09:48:29.875Z,14.52
2022-10-01T09:51:03.360Z,14.27
2022-10-01T09:54:13.001Z,13.40
2022-10-01T09:56:48.055Z,15.02
2022-10-01T09:59:30.905Z,16.17
2022-10-01T10:02:01.310Z,14.43
2022-10-01T10:04:28.675Z,14.73
2022-10-01T10:07:02.188Z,14.45
2022-10-01T10:09:35.070Z,14.35
2022-10-01T10:12:03.184Z,14.00
2022-10-01T10:14:41.183Z,16.35
2022-10-01T10:17:17.780Z,12.82
2022-10-01T10:19:51.759Z,12.40
2022-10-01T10:22:27.668Z,13.48
2022-10-01T10:24:58.431Z,13.18
2022-10-01T10:27:30.611Z,14.30
2022-10-01T10:30:14.971Z,13.52
2022-10-01T10:32:43.961Z,12.07
2022-10-01T10:35:14.872Z,12.88
2022-10-01T10:37:53.586Z,12.95
2022-10-01T10:40:41.455Z,11.15
2022-10-01T10:43:35.531Z,11.82
2022-10-01T10:46:03.723Z,12.13
2022-10-01T10:48:33.317Z,12.55
2022-10-01T10:51:02.526Z,11.02
2022-10-01T10:53:33.466Z,11.18
2022-10-01T10:56:02.356Z,11.00
2022-10-01T10:58:31.592Z,11.75
2022-10-01T11:01:09.761Z,11.75
2022-10-01T11:03:43.607Z,11.77
2022-10-01T11:06:14.791Z,10.60
2022-10-01T11:08:43.377Z,11.85
2022-10-01T11:11:28.873Z,11.95
2022-10-01T11:14:22.803Z,12.00
2022-10-01T11:17:25.577Z,11.80
2022-10-01T11:20:40.985Z,11.68
2022-10-01T11:23:23.330Z,12.90
2022-10-01T11:26:10.309Z,12.30
2022-10-01T11:28:51.926Z,9.82
2022-10-01T11:31:58.974Z,12.00
2022-10-01T11:34:26.233Z,15.23
2022-10-01T11:37:16.543Z,12.32
2022-10-01T11:39:47.287Z,10.93
2022-10-01T11:42:24.656Z,10.80
2022-10-01T11:45:01.486Z,9.57
2022-10-01T11:47:43.902Z,8.10
2022-10-01T11:50:16.802Z,8.93
2022-10-01T11:53:03.059Z,9.55
2022-10-01T11:55:52.330Z,10.32
2022-10-01T11:58:51.622Z,10.07
2022-10-01T12:01:28.638Z,9.02
2022-10-01T12:04:10.118Z,10.10
2022-10-01T12:06:49.470Z,10.25
2022-10-01T12:09:32.491Z,9.48
2022-10-01T12:12:08.582Z,9.02
2022-10-01T12:14:44.919Z,9.07
2022-10-01T12:17:28.581Z,9.10
2022-10-01T12:19:58.665Z,8.93
2022-10-01T12:22:32.656Z,8.50
2022-10-01T12:25:00.102Z,8.15
2022-10-01T12:27:48.171Z,7.53
2022-10-01T12:30:24.792Z,7.35
2022-10-01T12:33:05.696Z,7.20
2022-10-01T12:35:35.433Z,6.93
2022-10-01T12:38:21.169Z,8.30
2022-10-01T12:41:19.195Z,7.22
2022-10-01T12:44:16.179Z,6.82
2022-10-01T12:46:58.068Z,7.32
2022-10-01T12:49:44.373Z,6.78
2022-10-01T12:52:33.680Z,6.25
2022-10-01T12:55:34.233Z,6.68
2022-10-01T12:58:31.621Z,5.95
2022-10-01T13:01:17.759Z,6.40
2022-10-01T13:04:22.584Z,7.10
2022-10-01T13:06:53.032Z,5.57
2022-10-01T13:09:20.356Z,6.30
2022-10-01T13:12:05.953Z,5.55
2022-10-01T13:14:35.710Z,5.13
2022-10-01T13:17:34.795Z,4.55
2022-10-01T13:20:15.682Z,5.15
2022-10-01T13:22:50.879Z,5.05
2022-10-01T13:25:44.765Z,4.65
2022-10-01T13:28:26.764Z,4.50
2022-10-01T13:30:55.152Z,4.40
2022-10-01T13:33:28.959Z,4.90
2022-10-01T13:36:01.536Z,4.07
2022-10-01T13:38:43.422Z,5.07
2022-10-01T13:43:59.228Z,4.00
2022-10-01T13:46:33.115Z,4.13
2022-10-01T13:49:08.094Z,3.55
2022-10-01T13:51:37.388Z,4.15
2022-10-01T13:54:13.526Z,3.88
2022-10-01T13:56:43.284Z,3.33
2022-10-01T13:59:40.149Z,3.35
2022-10-01T14:02:32.053Z,3.17
2022-10-01T14:07:36.954Z,3.40
2022-10-01T14:10:05.040Z,2.95
2022-10-01T14:12:54.045Z,2.60
2022-10-01T14:15:48.520Z,2.50
2022-10-01T14:18:22.405Z,2.65
2022-10-01T14:21:20.890Z,2.53
2022-10-01T14:24:09.477Z,2.50
2022-10-01T14:26:50.793Z,2.80
2022-10-01T14:29:55.824Z,2.75
2022-10-01T14:32:48.183Z,2.90
2022-10-01T14:35:36.837Z,2.40
2022-10-01T14:38:12.675Z,2.92
2022-10-01T14:40:42.590Z,2.40
2022-10-01T14:43:21.865Z,2.45
2022-10-01T14:46:16.692Z,2.17
2022-10-01T14:48:45.002Z,2.60
2022-10-01T14:51:28.926Z,2.05
2022-10-01T14:53:59.874Z,2.33
2022-10-01T14:56:28.500Z,1.98
2022-10-01T14:59:02.789Z,2.13
2022-10-01T15:01:30.233Z,2.05
2022-10-01T15:03:57.838Z,2.00
2022-10-01T15:06:30.313Z,2.00
2022-10-01T15:09:14.338Z,1.80
2022-10-01T15:11:44.708Z,1.70
2022-10-01T15:14:21.221Z,1.40
2022-10-01T15:16:49.612Z,1.63
2022-10-01T15:19:20.707Z,1.60
2022-10-01T15:21:50.361Z,1.40
2022-10-01T15:24:36.771Z,1.20
2022-10-01T15:27:05.037Z,1.52
2022-10-01T15:29:32.907Z,1.45
2022-10-01T15:32:00.961Z,1.80
2022-10-01T15:34:28.514Z,1.67
2022-10-01T15:36:56.613Z,1.67
2022-10-01T15:39:41.391Z,1.67
2022-10-01T15:42:28.160Z,1.70
2022-10-01T15:45:23.171Z,1.25
2022-10-01T15:47:52.168Z,1.58
2022-10-01T15:50:22.618Z,1.20
2022-10-01T15:53:06.171Z,1.45
2022-10-01T15:55:41.126Z,1.35
2022-10-01T15:58:11.722Z,1.33
2022-10-01T16:00:39.025Z,1.67
2022-10-01T16:03:06.498Z,2.00
2022-10-01T16:05:46.365Z,1.30
2022-10-01T16:08:21.389Z,2.10
2022-10-01T16:11:13.435Z,1.85
2022-10-01T16:16:17.479Z,1.90
2022-10-01T16:18:56.488Z,1.75
2022-10-01T16:21:24.601Z,1.70
2022-10-01T16:23:55.810Z,2.10
2022-10-01T16:26:36.783Z,2.08
2022-10-01T16:29:17.915Z,2.83
2022-10-01T16:31:45.765Z,2.00
2022-10-01T16:34:18.588Z,2.00
2022-10-01T16:36:46.564Z,2.13
2022-10-01T16:39:15.328Z,2.47
2022-10-01T16:41:50.831Z,2.40
2022-10-01T16:44:28.971Z,2.97
2022-10-01T16:46:56.610Z,2.80
2022-10-01T16:49:25.802Z,3.03
2022-10-01T16:51:54.143Z,2.85
2022-10-01T16:54:24.281Z,2.97
2022-10-01T16:56:52.378Z,3.08
2022-10-01T16:59:22.421Z,2.90
2022-10-01T17:01:54.699Z,2.97
2022-10-01T17:04:22.521Z,3.10
2022-10-01T17:06:50.233Z,3.40
2022-10-01T17:09:17.491Z,3.38
2022-10-01T17:11:45.909Z,3.88
2022-10-01T17:14:16.678Z,3.38
2022-10-01T17:16:45.343Z,3.67
2022-10-01T17:19:13.311Z,3.72
2022-10-01T17:21:41.519Z,3.70
2022-10-01T17:24:12.084Z,4.18
2022-10-01T17:26:41.040Z,4.15
2022-10-01T17:29:11.737Z,4.90
2022-10-01T17:31:44.946Z,4.70
2022-10-01T17:34:13.129Z,5.35
2022-10-01T17:36:40.501Z,5.25
2022-10-01T17:39:07.870Z,5.43
2022-10-01T17:41:35.243Z,5.35
2022-10-01T17:44:02.627Z,5.07
2022-10-01T17:46:30.887Z,6.63
2022-10-01T17:48:58.240Z,5.88
2022-10-01T17:51:25.854Z,5.78
2022-10-01T17:53:54.972Z,5.45
2022-10-01T17:56:22.705Z,5.95
2022-10-01T17:58:52.690Z,5.63
2022-10-01T18:01:22.113Z,5.85
2022-10-01T18:03:55.473Z,6.00
2022-10-01T18:06:24.482Z,5.90
2022-10-01T18:08:55.477Z,6.05
2022-10-01T18:11:25.647Z,6.53
2022-10-01T18:13:53.235Z,6.05
2022-10-01T18:16:20.942Z,6.07
2022-10-01T18:19:51.793Z,6.70
2022-10-01T18:21:36.298Z,6.20
2022-10-01T18:24:05.111Z,7.22
2022-10-01T18:26:33.536Z,6.82
2022-10-01T18:29:01.265Z,6.78
2022-10-01T18:31:45.074Z,6.18
2022-10-01T18:34:21.789Z,6.70
2022-10-01T18:36:52.350Z,6.07
2022-10-01T18:39:24.218Z,5.88
2022-10-01T18:44:20.704Z,6.60
2022-10-01T18:46:51.066Z,6.00
2022-10-01T18:49:47.469Z,5.90
2022-10-01T18:52:54.070Z,6.22
2022-10-01T18:55:48.558Z,5.90
2022-10-01T18:58:45.884Z,5.22
2022-10-01T19:01:22.129Z,5.63
2022-10-01T19:04:07.771Z,5.78
2022-10-01T19:07:07.449Z,5.65
2022-10-01T19:09:53.791Z,6.25
2022-10-01T19:12:21.062Z,6.10
2022-10-01T19:15:13.738Z,6.35
2022-10-01T19:17:56.087Z,6.10
2022-10-01T19:21:02.004Z,5.53
2022-10-01T19:23:40.925Z,6.35
2022-10-01T19:26:33.645Z,6.03
2022-10-01T19:29:18.994Z,6.28
2022-10-01T19:32:01.181Z,6.03
2022-10-01T19:34:41.244Z,5.80
2022-10-01T19:37:16.161Z,5.82
2022-10-01T19:39:45.461Z,7.50
2022-10-01T19:42:22.111Z,8.57
2022-10-01T19:45:02.425Z,7.72
2022-10-01T19:48:08.771Z,9.10
2022-10-01T19:50:40.743Z,7.90
2022-10-01T19:53:20.397Z,7.60
2022-10-01T19:55:50.640Z,6.47
2022-10-01T19:58:20.270Z,6.90
2022-10-01T20:00:53.915Z,7.72
2022-10-01T20:03:44.007Z,7.25
2022-10-01T20:06:35.410Z,7.45
2022-10-01T20:09:16.130Z,7.03
2022-10-01T20:11:47.623Z,7.63
2022-10-01T20:14:39.454Z,7.38
2022-10-01T20:17:30.917Z,8.05
2022-10-01T20:20:24.036Z,7.00
2022-10-01T20:22:57.755Z,7.15
2022-10-01T20:25:36.141Z,6.68
2022-10-01T20:28:08.541Z,7.20
2022-10-01T20:30:58.590Z,7.28
2022-10-01T20:33:43.315Z,6.68
2022-10-01T20:36:34.750Z,6.53
2022-10-01T20:39:13.679Z,6.78
2022-10-01T20:41:47.936Z,6.32
2022-10-01T20:44:21.946Z,6.72
2022-10-01T20:46:59.681Z,6.43
2022-10-01T20:49:32.706Z,6.38
2022-10-01T20:52:21.556Z,6.22
2022-10-01T20:54:52.875Z,6.28
2022-10-01T20:57:44.599Z,6.30
2022-10-01T21:00:21.411Z,6.72
2022-10-01T21:03:17.939Z,6.15
2022-10-01T21:05:48.319Z,7.65
2022-10-01T21:08:38.923Z,5.40
2022-10-01T21:11:29.043Z,6.82
2022-10-01T21:14:30.810Z,6.13
2022-10-01T21:17:35.427Z,6.25
2022-10-01T21:20:44.099Z,6.10
2022-10-01T21:23:23.604Z,6.32
2022-10-01T21:25:50.899Z,7.07
2022-10-01T21:28:35.934Z,6.80
2022-10-01T21:31:12.439Z,6.85
2022-10-01T21:34:02.038Z,7.90
2022-10-01T21:36:45.691Z,7.78
2022-10-01T21:39:31.739Z,8.40
2022-10-01T21:42:31.810Z,9.40
2022-10-01T21:45:42.020Z,9.20
2022-10-01T21:48:28.809Z,8.98
2022-10-01T21:51:14.632Z,8.35
2022-10-01T21:54:10.409Z,7.78
2022-10-01T21:57:07.353Z,7.60
2022-10-01T21:59:58.392Z,7.50
2022-10-01T22:02:40.080Z,7.40
2022-10-01T22:05:30.081Z,7.70
2022-10-01T22:08:44.819Z,8.40
2022-10-01T22:11:22.131Z,8.02
2022-10-01T22:14:02.573Z,8.93
2022-10-01T22:16:42.831Z,8.45
2022-10-01T22:19:16.524Z,6.95
2022-10-01T22:21:50.654Z,7.35
2022-10-01T22:24:21.857Z,6.65
2022-10-01T22:26:54.187Z,6.70
2022-10-01T22:29:25.190Z,5.60
2022-10-01T22:31:58.997Z,6.50
2022-10-01T22:34:32.983Z,6.65
2022-10-01T22:37:19.855Z,6.93
2022-10-01T22:39:57.838Z,7.18
2022-10-01T22:42:33.505Z,7.10
2022-10-01T22:45:22.460Z,7.85
2022-10-01T22:47:57.507Z,7.38
2022-10-01T22:51:09.538Z,8.13
2022-10-01T22:53:52.856Z,7.63
2022-10-01T22:56:29.370Z,8.15
2022-10-01T22:59:32.281Z,7.88
2022-10-01T23:02:22.996Z,8.38
2022-10-01T23:05:08.826Z,8.35
2022-10-01T23:07:49.395Z,7.97
2022-10-01T23:10:25.740Z,8.07
2022-10-01T23:13:34.698Z,8.20
2022-10-01T23:16:13.922Z,8.25
2022-10-01T23:18:50.197Z,8.27
2022-10-01T23:21:55.755Z,8.82
2022-10-01T23:24:53.514Z,7.93
2022-10-01T23:27:45.889Z,6.95
2022-10-01T23:30:17.014Z,6.05
2022-10-01T23:33:08.182Z,6.95
2022-10-01T23:35:42.844Z,6.28
2022-10-01T23:38:31.901Z,6.28
2022-10-01T23:41:04.660Z,6.03
2022-10-01T23:43:48.137Z,6.28
2022-10-01T23:46:23.782Z,6.18
2022-10-01T23:49:00.767Z,5.97
2022-10-01T23:52:00.186Z,5.93
2022-10-01T23:54:36.153Z,5.15
2022-10-01T23:57:10.237Z,4.80
